createdAt,value
2023-02-11T00:00:56.251Z,7.00
2023-02-11T00:03:23.257Z,6.90
2023-02-11T00:06:04.955Z,7.00
2023-02-11T00:08:31.994Z,6.90
2023-02-11T00:10:58.923Z,7.00
2023-02-11T00:13:26.152Z,7.00
2023-02-11T00:15:53.901Z,6.90
2023-02-11T00:18:20.886Z,6.90
2023-02-11T00:20:47.673Z,6.90
2023-02-11T00:23:14.944Z,6.90
2023-02-11T00:25:42.883Z,6.90
2023-02-11T00:28:10.621Z,6.90
2023-02-11T00:30:37.940Z,6.90
2023-02-11T00:33:04.974Z,6.90
2023-02-11T00:35:31.822Z,6.90
2023-02-11T00:37:58.570Z,6.90
2023-02-11T00:40:25.547Z,6.90
2023-02-11T00:42:52.337Z,6.90
2023-02-11T00:45:20.939Z,6.90
2023-02-11T00:47:48.060Z,6.90
2023-02-11T00:50:14.876Z,6.90
2023-02-11T00:52:41.642Z,6.90
2023-02-11T00:55:08.780Z,6.90
2023-02-11T00:57:35.808Z,6.90
2023-02-11T01:00:03.116Z,6.90
2023-02-11T01:02:29.871Z,6.90
2023-02-11T01:04:56.781Z,6.90
2023-02-11T01:07:23.569Z,6.90
2023-02-11T01:09:50.284Z,6.80
2023-02-11T01:12:17.288Z,6.90
2023-02-11T01:14:44.328Z,6.90
2023-02-11T01:17:11.395Z,6.90
2023-02-11T01:19:38.729Z,6.90
2023-02-11T01:22:05.753Z,6.90
2023-02-11T01:24:33.230Z,7.00
2023-02-11T01:26:59.976Z,7.00
2023-02-11T01:29:26.748Z,6.90
2023-02-11T01:31:53.537Z,7.00
2023-02-11T01:34:20.418Z,6.90
2023-02-11T01:36:47.158Z,6.90
2023-02-11T01:39:13.841Z,6.80
2023-02-11T01:41:40.536Z,6.80
2023-02-11T01:44:26.252Z,6.70
2023-02-11T01:46:54.167Z,6.60
2023-02-11T01:49:30.445Z,6.60
2023-02-11T01:52:12.735Z,6.60
2023-02-11T01:55:05.717Z,6.60
2023-02-11T01:57:35.382Z,6.60
2023-02-11T02:00:05.029Z,6.70
2023-02-11T02:02:38.950Z,6.60
2023-02-11T02:05:35.498Z,6.60
2023-02-11T02:08:21.834Z,6.70
2023-02-11T02:10:53.969Z,6.70
2023-02-11T02:13:21.249Z,6.70
2023-02-11T02:15:57.295Z,6.70
2023-02-11T02:18:46.006Z,6.80
2023-02-11T02:21:28.203Z,6.80
2023-02-11T02:24:20.553Z,6.80
2023-02-11T02:27:00.195Z,6.80
2023-02-11T02:30:04.395Z,6.80
2023-02-11T02:32:44.944Z,6.80
2023-02-11T02:35:29.659Z,6.80
2023-02-11T02:38:08.361Z,6.70
2023-02-11T02:40:51.070Z,6.70
2023-02-11T02:43:19.866Z,6.70
2023-02-11T02:45:46.768Z,6.70
2023-02-11T02:48:32.126Z,6.70
2023-02-11T02:51:08.182Z,6.70
2023-02-11T02:53:57.535Z,6.80
2023-02-11T02:56:46.086Z,6.70
2023-02-11T02:59:22.541Z,6.70
2023-02-11T03:02:07.193Z,6.60
2023-02-11T03:05:02.925Z,6.60
2023-02-11T03:07:43.873Z,6.50
2023-02-11T03:10:24.476Z,6.60
2023-02-11T03:12:54.308Z,6.60
2023-02-11T03:15:22.916Z,6.60
2023-02-11T03:17:53.082Z,6.60
2023-02-11T03:20:22.141Z,6.60
2023-02-11T03:22:52.826Z,6.60
2023-02-11T03:25:21.173Z,6.50
2023-02-11T03:28:00.250Z,6.50
2023-02-11T03:30:35.168Z,6.50
2023-02-11T03:33:14.125Z,6.50
2023-02-11T03:36:07.773Z,6.50
2023-02-11T03:38:42.783Z,6.50
2023-02-11T03:41:11.288Z,6.40
2023-02-11T03:43:42.947Z,6.50
2023-02-11T03:46:12.055Z,6.50
2023-02-11T03:48:49.567Z,6.50
2023-02-11T03:51:17.102Z,6.50
2023-02-11T03:53:46.082Z,6.50
2023-02-11T03:56:21.633Z,6.50
2023-02-11T03:58:48.518Z,6.50
2023-02-11T04:01:15.918Z,6.50
2023-02-11T04:03:42.750Z,6.50
2023-02-11T04:06:09.528Z,6.50
2023-02-11T04:08:36.354Z,6.50
2023-02-11T04:11:03.061Z,6.50
2023-02-11T04:13:30.133Z,6.50
2023-02-11T04:15:57.011Z,6.50
2023-02-11T04:18:23.774Z,6.50
2023-02-11T04:20:51.079Z,6.50
2023-02-11T04:23:18.010Z,6.50
2023-02-11T04:25:44.732Z,6.50
2023-02-11T04:28:11.472Z,6.50
2023-02-11T04:30:38.256Z,6.50
2023-02-11T04:33:05.180Z,6.50
2023-02-11T04:35:31.964Z,6.50
2023-02-11T04:37:58.631Z,6.50
2023-02-11T04:40:25.340Z,6.50
2023-02-11T04:42:52.602Z,6.50
2023-02-11T04:45:19.304Z,6.50
2023-02-11T04:47:46.045Z,6.50
2023-02-11T04:50:12.756Z,6.50
2023-02-11T04:52:39.542Z,6.50
2023-02-11T04:55:06.647Z,6.50
2023-02-11T04:57:33.438Z,6.50
2023-02-11T05:00:00.193Z,6.50
2023-02-11T05:02:27.050Z,6.40
2023-02-11T05:04:53.799Z,6.40
2023-02-11T05:07:20.581Z,6.40
2023-02-11T05:09:47.302Z,6.40
2023-02-11T05:12:14.102Z,6.40
2023-02-11T05:14:40.996Z,6.40
2023-02-11T05:17:08.121Z,6.40
2023-02-11T05:19:34.855Z,6.50
2023-02-11T05:22:03.360Z,6.50
2023-02-11T05:24:32.371Z,6.50
2023-02-11T05:26:59.303Z,6.50
2023-02-11T05:29:26.134Z,6.50
2023-02-11T05:31:52.995Z,6.50
2023-02-11T05:34:19.755Z,6.50
2023-02-11T05:36:46.590Z,6.40
2023-02-11T05:39:13.313Z,6.40
2023-02-11T05:41:40.110Z,6.40
2023-02-11T05:44:06.890Z,6.40
2023-02-11T05:46:33.660Z,6.40
2023-02-11T05:49:00.524Z,6.40
2023-02-11T05:51:27.355Z,6.40
2023-02-11T05:53:54.082Z,6.40
2023-02-11T05:56:20.868Z,6.40
2023-02-11T05:58:47.753Z,6.40
2023-02-11T06:01:14.478Z,6.40
2023-02-11T06:03:41.399Z,6.50
2023-02-11T06:06:14.072Z,6.40
2023-02-11T06:08:41.056Z,6.40
2023-02-11T06:11:07.756Z,6.40
2023-02-11T06:13:35.349Z,6.50
2023-02-11T06:16:03.527Z,6.50
2023-02-11T06:18:30.537Z,6.60
2023-02-11T06:20:57.248Z,6.60
2023-02-11T06:23:24.170Z,6.70
2023-02-11T06:25:52.636Z,6.60
2023-02-11T06:28:19.816Z,6.60
2023-02-11T06:30:46.608Z,6.70
2023-02-11T06:33:13.528Z,6.70
2023-02-11T06:35:40.345Z,6.70
2023-02-11T06:38:07.219Z,6.70
2023-02-11T06:40:33.978Z,6.70
2023-02-11T06:43:00.699Z,6.80
2023-02-11T06:45:27.501Z,6.80
2023-02-11T06:47:54.171Z,6.80
2023-02-11T06:50:20.906Z,6.80
2023-02-11T06:52:47.668Z,6.80
2023-02-11T06:55:14.904Z,6.80
2023-02-11T06:57:41.677Z,6.80
2023-02-11T07:00:09.291Z,6.90
2023-02-11T07:02:36.563Z,6.90
2023-02-11T07:05:05.443Z,7.00
2023-02-11T07:07:34.081Z,7.00
2023-02-11T07:10:03.169Z,7.00
2023-02-11T07:12:30.990Z,7.10
2023-02-11T07:14:58.090Z,7.10
2023-02-11T07:17:24.833Z,7.00
2023-02-11T07:19:51.610Z,7.10
2023-02-11T07:22:18.397Z,7.10
2023-02-11T07:24:45.200Z,7.10
2023-02-11T07:27:12.163Z,7.00
2023-02-11T07:29:38.920Z,7.10
2023-02-11T07:32:06.648Z,7.10
2023-02-11T07:34:33.623Z,7.00
2023-02-11T07:37:00.393Z,7.10
2023-02-11T07:39:27.542Z,7.10
2023-02-11T07:41:54.832Z,7.10
2023-02-11T07:44:21.564Z,7.20
2023-02-11T07:46:49.269Z,7.30
2023-02-11T07:49:16.543Z,7.20
2023-02-11T07:51:43.292Z,7.20
2023-02-11T07:54:11.426Z,7.20
2023-02-11T07:56:38.345Z,7.30
2023-02-11T07:59:05.158Z,7.20
2023-02-11T08:01:32.043Z,7.30
2023-02-11T08:04:00.440Z,7.20
2023-02-11T08:06:30.192Z,7.20
2023-02-11T08:08:57.238Z,7.10
2023-02-11T08:11:26.723Z,7.10
2023-02-11T08:13:55.196Z,7.10
2023-02-11T08:16:26.044Z,7.10
2023-02-11T08:18:54.153Z,7.10
2023-02-11T08:21:21.391Z,7.30
2023-02-11T08:23:49.677Z,7.20
2023-02-11T08:26:19.920Z,7.20
2023-02-11T08:28:48.016Z,7.20
2023-02-11T08:31:21.057Z,7.30
2023-02-11T08:33:48.306Z,7.30
2023-02-11T08:36:18.873Z,7.30
2023-02-11T08:38:46.075Z,7.30
2023-02-11T08:41:14.945Z,7.40
2023-02-11T08:43:43.437Z,7.40
2023-02-11T08:46:13.865Z,7.40
2023-02-11T08:48:40.641Z,7.40
2023-02-11T08:51:16.586Z,7.40
2023-02-11T08:53:43.568Z,7.50
2023-02-11T08:56:13.441Z,7.60
2023-02-11T08:58:41.106Z,7.50
2023-02-11T09:01:17.184Z,7.50
2023-02-11T09:03:44.414Z,7.50
2023-02-11T09:06:12.393Z,7.60
2023-02-11T09:08:46.363Z,7.60
2023-02-11T09:11:13.530Z,7.60
2023-02-11T09:13:42.163Z,7.60
2023-02-11T09:16:15.616Z,7.70
2023-02-11T09:18:42.662Z,7.70
2023-02-11T09:21:10.309Z,7.80
2023-02-11T09:23:37.117Z,7.80
2023-02-11T09:26:13.522Z,7.90
2023-02-11T09:28:40.832Z,7.80
2023-02-11T09:31:09.379Z,7.90
2023-02-11T09:33:36.878Z,8.00
2023-02-11T09:36:05.794Z,8.10
2023-02-11T09:38:33.438Z,8.10
2023-02-11T09:41:04.060Z,8.00
2023-02-11T09:43:44.135Z,8.00
2023-02-11T09:46:16.129Z,8.00
2023-02-11T09:48:46.145Z,8.00
2023-02-11T09:51:44.842Z,8.10
2023-02-11T09:54:19.306Z,8.20
2023-02-11T09:56:47.414Z,8.20
2023-02-11T09:59:16.209Z,8.20
2023-02-11T10:02:17.114Z,8.20
2023-02-11T10:08:20.218Z,8.30
2023-02-11T10:11:31.181Z,8.20
2023-02-11T10:14:23.399Z,8.20
2023-02-11T10:17:02.091Z,8.20
2023-02-11T10:19:59.523Z,8.30
2023-02-11T10:22:32.785Z,8.30
2023-02-11T10:25:00.593Z,8.30
2023-02-11T10:27:35.728Z,8.30
2023-02-11T10:30:16.421Z,8.30
2023-02-11T10:32:59.665Z,8.50
2023-02-11T10:35:27.241Z,8.50
2023-02-11T10:37:55.898Z,8.50
2023-02-11T10:40:28.299Z,8.50
2023-02-11T10:43:02.666Z,8.40
2023-02-11T10:45:49.283Z,8.50
2023-02-11T10:48:49.489Z,8.60
2023-02-11T10:51:18.503Z,8.60
2023-02-11T10:53:46.660Z,8.50
2023-02-11T10:56:23.017Z,8.70
2023-02-11T10:59:22.177Z,8.60
2023-02-11T11:01:57.577Z,8.60
2023-02-11T11:04:30.521Z,8.70
2023-02-11T11:07:09.150Z,8.60
2023-02-11T11:09:51.985Z,8.60
2023-02-11T11:12:44.565Z,8.70
2023-02-11T11:15:11.349Z,8.70
2023-02-11T11:17:38.680Z,8.70
2023-02-11T11:20:28.440Z,8.70
2023-02-11T11:23:08.670Z,8.80
2023-02-11T11:25:37.787Z,8.80
2023-02-11T11:28:05.020Z,8.80
2023-02-11T11:30:39.145Z,8.80
2023-02-11T11:33:21.103Z,8.90
2023-02-11T11:36:07.552Z,9.00
2023-02-11T11:38:37.581Z,9.00
2023-02-11T11:41:34.712Z,9.00
2023-02-11T11:44:05.109Z,9.10
2023-02-11T11:46:38.227Z,9.00
2023-02-11T11:49:12.591Z,9.00
2023-02-11T11:51:41.955Z,9.00
2023-02-11T11:54:15.438Z,9.00
2023-02-11T11:57:00.643Z,9.00
2023-02-11T11:59:28.252Z,9.00
2023-02-11T12:02:19.856Z,9.00
2023-02-11T12:05:25.073Z,9.10
2023-02-11T12:08:13.517Z,9.10
2023-02-11T12:11:14.131Z,9.20
2023-02-11T12:14:16.217Z,9.30
2023-02-11T12:17:11.696Z,9.40
2023-02-11T12:19:47.956Z,9.30
2023-02-11T12:22:41.249Z,9.30
2023-02-11T12:25:26.718Z,9.30
2023-02-11T12:27:53.456Z,9.30
2023-02-11T12:30:29.149Z,9.40
2023-02-11T12:33:36.433Z,9.50
2023-02-11T12:36:13.649Z,9.60
2023-02-11T12:38:56.743Z,9.60
2023-02-11T12:41:51.254Z,9.80
2023-02-11T12:45:02.741Z,9.70
2023-02-11T12:47:58.489Z,9.70
2023-02-11T12:50:45.492Z,9.80
2023-02-11T12:53:34.234Z,9.90
2023-02-11T12:56:12.863Z,9.90
2023-02-11T12:58:45.402Z,9.80
2023-02-11T13:01:32.298Z,9.80
2023-02-11T13:04:23.692Z,9.70
2023-02-11T13:07:02.384Z,9.80
2023-02-11T13:09:38.874Z,9.80
2023-02-11T13:12:25.630Z,9.90
2023-02-11T13:14:56.976Z,9.90
2023-02-11T13:17:35.450Z,9.80
2023-02-11T13:20:15.050Z,9.90
2023-02-11T13:22:53.894Z,9.90
2023-02-11T13:25:44.256Z,9.90
2023-02-11T13:28:42.615Z,9.90
2023-02-11T13:31:12.701Z,9.90
2023-02-11T13:33:43.328Z,9.80
2023-02-11T13:36:11.805Z,10.00
2023-02-11T13:38:39.234Z,10.00
2023-02-11T13:41:30.061Z,10.10
2023-02-11T13:44:08.902Z,10.20
2023-02-11T13:46:57.223Z,10.20
2023-02-11T13:49:42.276Z,10.40
2023-02-11T13:52:24.067Z,10.40
2023-02-11T13:54:53.573Z,10.40
2023-02-11T13:57:20.263Z,10.40
2023-02-11T13:59:50.308Z,10.40
2023-02-11T14:02:35.664Z,10.50
2023-02-11T14:05:23.764Z,10.50
2023-02-11T14:08:30.846Z,10.40
2023-02-11T14:11:01.580Z,10.50
2023-02-11T14:13:35.067Z,10.30
2023-02-11T14:16:22.611Z,10.40
2023-02-11T14:18:54.937Z,10.20
2023-02-11T14:21:27.852Z,10.20
2023-02-11T14:24:14.546Z,10.40
2023-02-11T14:27:02.695Z,10.20
2023-02-11T14:29:51.469Z,10.30
2023-02-11T14:32:53.800Z,10.30
2023-02-11T14:35:32.720Z,10.20
2023-02-11T14:38:24.111Z,10.30
2023-02-11T14:41:10.531Z,10.20
2023-02-11T14:43:45.365Z,10.10
2023-02-11T14:46:12.326Z,10.10
2023-02-11T14:48:43.504Z,10.20
2023-02-11T14:51:19.952Z,10.10
2023-02-11T14:54:00.984Z,10.20
2023-02-11T14:56:31.775Z,10.10
2023-02-11T14:58:58.682Z,10.30
2023-02-11T15:01:29.541Z,10.10
2023-02-11T15:03:56.953Z,10.10
2023-02-11T15:06:27.255Z,10.00
2023-02-11T15:09:07.354Z,10.10
2023-02-11T15:11:39.822Z,10.10
2023-02-11T15:14:30.371Z,10.20
2023-02-11T15:17:00.610Z,10.10
2023-02-11T15:19:36.827Z,10.10
2023-02-11T15:22:20.062Z,10.10
2023-02-11T15:25:03.817Z,9.90
2023-02-11T15:27:42.367Z,10.00
2023-02-11T15:30:31.976Z,10.10
2023-02-11T15:33:00.791Z,10.00
2023-02-11T15:35:29.018Z,10.00
2023-02-11T15:37:57.494Z,10.10
2023-02-11T15:40:27.982Z,10.10
2023-02-11T15:42:58.716Z,10.00
2023-02-11T15:45:28.980Z,9.90
2023-02-11T15:48:10.721Z,9.90
2023-02-11T15:50:40.636Z,9.90
2023-02-11T15:53:28.498Z,9.90
2023-02-11T15:56:04.664Z,9.90
2023-02-11T15:58:37.628Z,9.80
2023-02-11T16:01:04.767Z,9.90
2023-02-11T16:03:33.113Z,9.90
2023-02-11T16:06:24.743Z,9.90
2023-02-11T16:09:01.968Z,9.90
2023-02-11T16:11:34.986Z,9.90
2023-02-11T16:14:04.611Z,10.00
2023-02-11T16:16:34.485Z,10.00
2023-02-11T16:19:05.258Z,9.90
2023-02-11T16:21:42.415Z,9.80
2023-02-11T16:24:19.419Z,9.70
2023-02-11T16:26:53.394Z,9.80
2023-02-11T16:29:38.406Z,9.70
2023-02-11T16:32:26.609Z,9.70
2023-02-11T16:34:58.097Z,9.70
2023-02-11T16:37:25.783Z,9.70
2023-02-11T16:39:56.511Z,9.80
2023-02-11T16:42:23.471Z,9.80
2023-02-11T16:44:50.170Z,9.70
2023-02-11T16:47:23.964Z,9.70
2023-02-11T16:49:50.995Z,9.70
2023-02-11T16:52:18.633Z,9.80
2023-02-11T16:54:45.370Z,9.70
2023-02-11T16:57:17.306Z,9.70
2023-02-11T16:59:44.866Z,9.60
2023-02-11T17:02:22.863Z,9.60
2023-02-11T17:04:52.384Z,9.50
2023-02-11T17:07:19.215Z,9.60
2023-02-11T17:09:45.958Z,9.50
2023-02-11T17:12:12.685Z,9.60
2023-02-11T17:14:39.490Z,9.50
2023-02-11T17:17:06.289Z,9.60
2023-02-11T17:19:33.107Z,9.60
2023-02-11T17:21:59.819Z,9.50
2023-02-11T17:24:26.584Z,9.50
2023-02-11T17:26:54.764Z,9.50
2023-02-11T17:29:23.771Z,9.50
2023-02-11T17:31:52.341Z,9.50
2023-02-11T17:34:20.696Z,9.50
2023-02-11T17:36:47.781Z,9.30
2023-02-11T17:39:14.831Z,9.30
2023-02-11T17:41:42.144Z,9.40
2023-02-11T17:44:10.785Z,9.40
2023-02-11T17:46:37.520Z,9.40
2023-02-11T17:49:05.112Z,9.40
2023-02-11T17:51:37.451Z,9.30
2023-02-11T17:54:11.888Z,9.30
2023-02-11T17:56:39.030Z,9.30
2023-02-11T17:59:08.396Z,9.20
2023-02-11T18:01:36.474Z,9.10
2023-02-11T18:04:04.516Z,9.00
2023-02-11T18:06:33.703Z,9.00
2023-02-11T18:09:02.454Z,9.00
2023-02-11T18:11:30.440Z,9.00
2023-02-11T18:13:59.753Z,8.90
2023-02-11T18:16:28.919Z,8.90
2023-02-11T18:18:57.748Z,8.90
2023-02-11T18:21:25.134Z,8.80
2023-02-11T18:23:52.236Z,8.80
2023-02-11T18:26:21.374Z,8.80
2023-02-11T18:28:48.381Z,8.90
2023-02-11T18:31:15.306Z,8.80
2023-02-11T18:33:42.736Z,8.80
2023-02-11T18:36:12.603Z,8.90
2023-02-11T18:38:39.771Z,9.00
2023-02-11T18:41:07.375Z,9.10
2023-02-11T18:43:34.579Z,9.10
2023-02-11T18:46:02.948Z,9.10
2023-02-11T18:48:29.825Z,9.20
2023-02-11T18:50:56.532Z,9.10
2023-02-11T18:53:24.941Z,9.00
2023-02-11T18:55:53.600Z,8.90
2023-02-11T18:58:21.368Z,8.90
2023-02-11T19:00:49.612Z,8.90
2023-02-11T19:03:16.462Z,8.90
2023-02-11T19:05:48.501Z,8.90
2023-02-11T19:08:17.161Z,8.80
2023-02-11T19:10:46.327Z,8.90
2023-02-11T19:13:14.068Z,9.00
2023-02-11T19:15:45.335Z,9.00
2023-02-11T19:18:14.175Z,9.10
2023-02-11T19:20:43.115Z,9.10
2023-02-11T19:23:10.856Z,9.00
2023-02-11T19:25:38.077Z,9.10
2023-02-11T19:28:04.870Z,9.10
2023-02-11T19:30:31.751Z,9.10
2023-02-11T19:32:58.557Z,9.10
2023-02-11T19:35:25.477Z,9.10
2023-02-11T19:37:52.323Z,9.00
2023-02-11T19:40:21.229Z,9.00
2023-02-11T19:42:48.027Z,9.00
2023-02-11T19:45:14.923Z,9.00
2023-02-11T19:47:41.685Z,9.00
2023-02-11T19:50:09.168Z,9.10
2023-02-11T19:52:38.675Z,9.00
2023-02-11T19:55:05.782Z,9.00
2023-02-11T19:57:32.550Z,9.10
2023-02-11T19:59:59.333Z,9.10
2023-02-11T20:02:26.125Z,9.00
2023-02-11T20:04:52.985Z,8.90
2023-02-11T20:07:19.765Z,8.80
2023-02-11T20:09:46.563Z,8.90
2023-02-11T20:12:13.766Z,8.90
2023-02-11T20:14:40.734Z,9.00
2023-02-11T20:17:07.452Z,8.90
2023-02-11T20:19:34.388Z,8.80
2023-02-11T20:22:01.171Z,8.90
2023-02-11T20:24:27.942Z,8.90
2023-02-11T20:26:58.113Z,9.00
2023-02-11T20:29:25.932Z,8.90
2023-02-11T20:31:52.832Z,9.00
2023-02-11T20:34:21.859Z,8.80
2023-02-11T20:36:52.221Z,8.90
2023-02-11T20:39:21.753Z,8.80
2023-02-11T20:41:49.285Z,8.80
2023-02-11T20:44:16.156Z,8.80
2023-02-11T20:46:47.920Z,8.80
2023-02-11T20:49:18.906Z,8.60
2023-02-11T20:51:46.265Z,8.50
2023-02-11T20:54:16.036Z,8.50
2023-02-11T20:56:45.556Z,8.50
2023-02-11T20:59:14.474Z,8.50
2023-02-11T21:01:45.011Z,8.50
2023-02-11T21:04:14.493Z,8.50
2023-02-11T21:06:44.941Z,8.50
2023-02-11T21:09:14.335Z,8.50
2023-02-11T21:11:41.345Z,8.50
2023-02-11T21:14:08.211Z,8.50
2023-02-11T21:16:34.932Z,8.40
2023-02-11T21:19:02.881Z,8.30
2023-02-11T21:21:30.344Z,8.30
2023-02-11T21:23:58.477Z,8.30
2023-02-11T21:26:25.797Z,8.30
2023-02-11T21:28:52.752Z,8.40
2023-02-11T21:31:22.938Z,8.30
2023-02-11T21:33:51.004Z,8.20
2023-02-11T21:36:18.372Z,8.20
2023-02-11T21:38:45.254Z,8.20
2023-02-11T21:41:12.436Z,8.30
2023-02-11T21:43:39.278Z,8.30
2023-02-11T21:46:11.858Z,8.40
2023-02-11T21:48:39.002Z,8.40
2023-02-11T21:51:26.461Z,8.40
2023-02-11T21:53:58.381Z,8.30
2023-02-11T21:56:28.533Z,8.30
2023-02-11T21:58:57.399Z,8.30
2023-02-11T22:01:26.933Z,8.40
2023-02-11T22:03:54.018Z,8.40
2023-02-11T22:06:26.068Z,8.50
2023-02-11T22:08:54.649Z,8.60
2023-02-11T22:11:21.789Z,8.50
2023-02-11T22:13:52.459Z,8.60
2023-02-11T22:16:19.230Z,8.60
2023-02-11T22:18:46.530Z,8.60
2023-02-11T22:21:19.737Z,8.70
2023-02-11T22:23:46.935Z,8.70
2023-02-11T22:26:24.388Z,8.70
2023-02-11T22:28:52.005Z,8.80
2023-02-11T22:31:25.779Z,8.80
2023-02-11T22:33:52.855Z,8.80
2023-02-11T22:36:22.406Z,8.70
2023-02-11T22:38:50.300Z,8.80
2023-02-11T22:41:18.079Z,8.80
2023-02-11T22:43:45.273Z,8.80
2023-02-11T22:46:15.971Z,8.80
2023-02-11T22:48:43.526Z,8.80
2023-02-11T22:51:13.467Z,8.70
2023-02-11T22:53:43.608Z,8.60
2023-02-11T22:56:15.376Z,8.60
2023-02-11T22:58:42.982Z,8.70
2023-02-11T23:01:10.378Z,8.80
2023-02-11T23:03:37.273Z,8.80
2023-02-11T23:06:04.476Z,8.70
2023-02-11T23:08:32.484Z,8.70
2023-02-11T23:11:12.210Z,8.70
2023-02-11T23:13:41.379Z,8.80
2023-02-11T23:16:14.191Z,8.80
2023-02-11T23:18:43.110Z,8.80
2023-02-11T23:21:13.543Z,8.80
2023-02-11T23:23:40.446Z,8.80
2023-02-11T23:26:11.164Z,8.80
2023-02-11T23:28:38.459Z,8.90
2023-02-11T23:31:20.111Z,8.80
2023-02-11T23:33:48.340Z,8.90
2023-02-11T23:36:16.045Z,8.80
2023-02-11T23:38:43.445Z,8.70
2023-02-11T23:41:10.810Z,8.70
2023-02-11T23:43:37.966Z,8.80
2023-02-11T23:46:05.575Z,8.80
2023-02-11T23:48:32.384Z,8.80
2023-02-11T23:50:59.166Z,8.80
2023-02-11T23:53:25.956Z,8.80
2023-02-11T23:55:52.858Z,8.80
2023-02-11T23:58:19.927Z,8.70
